Time,TemperatureF,DewpointF,PressureIn,WindDirection,WindDirectionDegrees,WindSpeedMPH,WindSpeedGustMPH,Humidity,HourlyPrecipIn,Conditions,Clouds,dailyrainin,SoftwareType,DateUTC
2013-07-13 00:11:00,81.9,77.0,29.89,ENE,68,4.0,11.0,84,0.00,,,0.00,weatherlink.com 1.10,2013-07-13 04:11:00,
2013-07-13 00:26:00,81.9,77.0,29.89,NE,42,7.0,13.0,84,0.00,,,0.00,weatherlink.com 1.10,2013-07-13 04:26:00,
2013-07-13 00:41:00,81.9,77.0,29.89,NE,56,1.0,9.0,84,0.00,,,0.00,weatherlink.com 1.10,2013-07-13 04:41:00,
2013-07-13 00:56:00,81.9,77.0,29.89,NE,55,5.0,11.0,84,0.00,,,0.00,weatherlink.com 1.10,2013-07-13 04:56:00,
2013-07-13 01:11:00,81.9,76.0,29.88,ENE,75,3.0,9.0,83,0.00,,,0.00,weatherlink.com 1.10,2013-07-13 05:11:00,
2013-07-13 01:26:00,81.7,77.0,29.88,East,90,8.0,10.0,84,0.00,,,0.00,weatherlink.com 1.10,2013-07-13 05:26:00,
2013-07-13 01:41:00,81.6,76.0,29.88,East,81,5.0,10.0,83,0.00,,,0.00,weatherlink.com 1.10,2013-07-13 05:41:00,
2013-07-13 01:56:00,81.6,76.0,29.88,East,98,6.0,8.0,84,0.00,,,0.00,weatherlink.com 1.10,2013-07-13 05:56:00,
2013-07-13 02:11:00,81.4,76.0,29.87,ENE,72,4.0,10.0,84,0.00,,,0.00,weatherlink.com 1.10,2013-07-13 06:11:00,
2013-07-13 02:26:00,81.3,76.0,29.87,East,90,6.0,10.0,84,0.00,,,0.00,weatherlink.com 1.10,2013-07-13 06:26:00,
2013-07-13 02:41:00,81.2,76.0,29.87,ESE,107,5.0,8.0,84,0.00,,,0.00,weatherlink.com 1.10,2013-07-13 06:41:00,
2013-07-13 02:56:00,81.2,76.0,29.87,ENE,67,5.0,7.0,85,0.00,,,0.00,weatherlink.com 1.10,2013-07-13 06:56:00,
2013-07-13 03:11:00,81.1,76.0,29.87,ENE,69,3.0,8.0,85,0.00,,,0.00,weatherlink.com 1.10,2013-07-13 07:11:00,
2013-07-13 03:27:00,81.1,76.0,29.87,East,80,1.0,10.0,85,0.00,,,0.00,weatherlink.com 1.10,2013-07-13 07:27:00,
2013-07-13 03:42:00,80.9,75.0,29.87,East,94,2.0,7.0,83,0.00,,,0.00,weatherlink.com 1.10,2013-07-13 07:42:00,
2013-07-13 03:57:00,80.8,75.0,29.87,East,81,3.0,9.0,83,0.00,,,0.00,weatherlink.com 1.10,2013-07-13 07:57:00,
2013-07-13 04:12:00,80.7,75.0,29.88,ENE,70,4.0,8.0,83,0.00,,,0.00,weatherlink.com 1.10,2013-07-13 08:12:00,
2013-07-13 04:27:00,80.6,75.0,29.88,East,85,5.0,9.0,84,0.00,,,0.00,weatherlink.com 1.10,2013-07-13 08:27:00,
2013-07-13 04:42:00,80.5,76.0,29.88,East,80,3.0,7.0,85,0.00,,,0.00,weatherlink.com 1.10,2013-07-13 08:42:00,
2013-07-13 04:57:00,80.5,76.0,29.88,ENE,72,3.0,7.0,85,0.00,,,0.00,weatherlink.com 1.10,2013-07-13 08:57:00,
2013-07-13 05:12:00,80.5,75.0,29.88,ENE,71,4.0,8.0,84,0.00,,,0.00,weatherlink.com 1.10,2013-07-13 09:12:00,
2013-07-13 05:27:00,80.3,75.0,29.89,ENE,67,3.0,8.0,84,0.00,,,0.00,weatherlink.com 1.10,2013-07-13 09:27:00,
2013-07-13 05:42:00,80.3,75.0,29.89,ESE,111,3.0,8.0,84,0.00,,,0.00,weatherlink.com 1.10,2013-07-13 09:42:00,
2013-07-13 05:57:00,80.2,75.0,29.89,East,79,3.0,7.0,85,0.00,,,0.00,weatherlink.com 1.10,2013-07-13 09:57:00,
2013-07-13 06:12:00,80.4,76.0,29.89,East,88,3.0,9.0,85,0.00,,,0.00,weatherlink.com 1.10,2013-07-13 10:12:00,
2013-07-13 06:27:00,80.5,76.0,29.90,East,90,6.0,8.0,85,0.00,,,0.00,weatherlink.com 1.10,2013-07-13 10:27:00,
2013-07-13 06:42:00,80.6,75.0,29.91,ESE,102,4.0,7.0,84,0.00,,,0.00,weatherlink.com 1.10,2013-07-13 10:42:00,
2013-07-13 06:57:00,80.9,76.0,29.91,ENE,69,4.0,8.0,84,0.00,,,0.00,weatherlink.com 1.10,2013-07-13 10:57:00,
2013-07-13 07:12:00,81.4,75.0,29.91,ESE,113,3.0,10.0,82,0.00,,,0.00,weatherlink.com 1.10,2013-07-13 11:12:00,
2013-07-13 07:27:00,82.1,76.0,29.91,East,96,5.0,11.0,81,0.00,,,0.00,weatherlink.com 1.10,2013-07-13 11:27:00,
2013-07-13 07:42:00,82.6,76.0,29.92,ENE,73,5.0,11.0,80,0.00,,,0.00,weatherlink.com 1.10,2013-07-13 11:42:00,
2013-07-13 07:57:00,83.2,76.0,29.91,East,99,5.0,11.0,79,0.00,,,0.00,weatherlink.com 1.10,2013-07-13 11:57:00,
2013-07-13 08:12:00,83.7,76.0,29.92,East,90,5.0,13.0,78,0.00,,,0.00,weatherlink.com 1.10,2013-07-13 12:12:00,
2013-07-13 08:27:00,84.3,76.0,29.92,East,87,11.0,15.0,77,0.00,,,0.00,weatherlink.com 1.10,2013-07-13 12:27:00,
2013-07-13 08:42:00,84.6,76.0,29.92,East,87,8.0,14.0,76,0.00,,,0.00,weatherlink.com 1.10,2013-07-13 12:42:00,
2013-07-13 08:57:00,84.8,77.0,29.92,ESE,105,8.0,14.0,76,0.00,,,0.00,weatherlink.com 1.10,2013-07-13 12:57:00,
2013-07-13 09:12:00,85.1,77.0,29.92,ESE,114,3.0,13.0,76,0.00,,,0.00,weatherlink.com 1.10,2013-07-13 13:12:00,
2013-07-13 09:27:00,85.7,77.0,29.93,ENE,61,5.0,15.0,74,0.00,,,0.00,weatherlink.com 1.10,2013-07-13 13:27:00,
2013-07-13 09:42:00,86.5,77.0,29.92,East,80,8.0,13.0,72,0.00,,,0.00,weatherlink.com 1.10,2013-07-13 13:42:00,
2013-07-13 09:57:00,86.6,76.0,29.93,East,86,7.0,16.0,71,0.00,,,0.00,weatherlink.com 1.10,2013-07-13 13:57:00,
2013-07-13 10:12:00,87.2,76.0,29.93,ENE,78,7.0,17.0,70,0.00,,,0.00,weatherlink.com 1.10,2013-07-13 14:12:00,
2013-07-13 10:27:00,87.9,77.0,29.92,NE,40,6.0,13.0,69,0.00,,,0.00,weatherlink.com 1.10,2013-07-13 14:27:00,
2013-07-13 10:42:00,87.4,77.0,29.92,East,99,8.0,15.0,70,0.00,,,0.00,weatherlink.com 1.10,2013-07-13 14:42:00,
2013-07-13 10:57:00,87.8,76.0,29.93,ENE,78,3.0,16.0,68,0.00,,,0.00,weatherlink.com 1.10,2013-07-13 14:57:00,
2013-07-13 11:12:00,87.8,76.0,29.92,SE,126,7.0,15.0,68,0.00,,,0.00,weatherlink.com 1.10,2013-07-13 15:12:00,
2013-07-13 11:27:00,88.1,77.0,29.92,ENE,67,5.0,12.0,70,0.00,,,0.00,weatherlink.com 1.10,2013-07-13 15:27:00,
2013-07-13 11:42:00,87.5,76.0,29.92,ESE,109,7.0,14.0,69,0.00,,,0.00,weatherlink.com 1.10,2013-07-13 15:42:00,
2013-07-13 11:57:00,88.3,75.0,29.92,East,90,11.0,15.0,65,0.00,,,0.00,weatherlink.com 1.10,2013-07-13 15:57:00,
2013-07-13 12:12:00,89.3,76.0,29.92,ENE,57,7.0,12.0,65,0.00,,,0.00,weatherlink.com 1.10,2013-07-13 16:12:00,
2013-07-13 12:27:00,89.2,76.0,29.92,ESE,107,7.0,14.0,66,0.00,,,0.00,weatherlink.com 1.10,2013-07-13 16:27:00,
2013-07-13 12:42:00,88.6,76.0,29.91,ENE,75,8.0,13.0,66,0.00,,,0.00,weatherlink.com 1.10,2013-07-13 16:42:00,
2013-07-13 12:57:00,88.8,75.0,29.90,NNE,31,7.0,15.0,63,0.00,,,0.00,weatherlink.com 1.10,2013-07-13 16:57:00,
2013-07-13 13:12:00,89.1,76.0,29.90,SE,146,5.0,13.0,65,0.00,,,0.00,weatherlink.com 1.10,2013-07-13 17:12:00,
2013-07-13 13:27:00,89.3,77.0,29.89,East,101,9.0,14.0,66,0.00,,,0.00,weatherlink.com 1.10,2013-07-13 17:27:00,
2013-07-13 13:42:00,89.1,75.0,29.88,East,80,7.0,13.0,64,0.00,,,0.00,weatherlink.com 1.10,2013-07-13 17:42:00,
2013-07-13 13:57:00,89.4,76.0,29.88,ESE,108,9.0,13.0,65,0.00,,,0.00,weatherlink.com 1.10,2013-07-13 17:57:00,
2013-07-13 14:12:00,88.7,76.0,29.87,ENE,58,8.0,14.0,67,0.00,,,0.00,weatherlink.com 1.10,2013-07-13 18:12:00,
2013-07-13 14:27:00,88.1,77.0,29.87,ENE,74,8.0,16.0,70,0.00,,,0.00,weatherlink.com 1.10,2013-07-13 18:27:00,
2013-07-13 14:42:00,88.6,75.0,29.86,SE,128,3.0,14.0,65,0.00,,,0.00,weatherlink.com 1.10,2013-07-13 18:42:00,
2013-07-13 14:58:00,87.9,75.0,29.85,ESE,110,7.0,17.0,65,0.00,,,0.00,weatherlink.com 1.10,2013-07-13 18:58:00,
2013-07-13 15:13:00,87.6,76.0,29.84,East,94,10.0,14.0,69,0.00,,,0.00,weatherlink.com 1.10,2013-07-13 19:13:00,
2013-07-13 15:28:00,88.1,76.0,29.84,NE,45,4.0,13.0,68,0.00,,,0.00,weatherlink.com 1.10,2013-07-13 19:28:00,
2013-07-13 15:43:00,87.6,76.0,29.83,ESE,114,10.0,15.0,69,0.00,,,0.00,weatherlink.com 1.10,2013-07-13 19:43:00,
2013-07-13 15:58:00,87.0,76.0,29.83,East,98,8.0,13.0,70,0.00,,,0.00,weatherlink.com 1.10,2013-07-13 19:58:00,
2013-07-13 16:13:00,87.3,77.0,29.83,ESE,117,8.0,16.0,71,0.00,,,0.00,weatherlink.com 1.10,2013-07-13 20:13:00,
2013-07-13 16:28:00,86.9,76.0,29.82,East,79,9.0,15.0,70,0.00,,,0.00,weatherlink.com 1.10,2013-07-13 20:28:00,
2013-07-13 16:43:00,86.3,76.0,29.82,East,89,8.0,18.0,71,0.00,,,0.00,weatherlink.com 1.10,2013-07-13 20:43:00,
2013-07-13 16:58:00,86.9,76.0,29.82,ENE,63,15.0,15.0,71,0.00,,,0.00,weatherlink.com 1.10,2013-07-13 20:58:00,
2013-07-13 17:13:00,86.2,76.0,29.82,ENE,71,9.0,18.0,72,0.00,,,0.00,weatherlink.com 1.10,2013-07-13 21:13:00,
2013-07-13 17:28:00,86.1,76.0,29.82,NE,53,6.0,14.0,72,0.00,,,0.00,weatherlink.com 1.10,2013-07-13 21:28:00,
2013-07-13 17:43:00,85.1,76.0,29.82,East,96,5.0,14.0,75,0.00,,,0.00,weatherlink.com 1.10,2013-07-13 21:43:00,
2013-07-13 17:58:00,85.0,76.0,29.82,ENE,61,11.0,13.0,75,0.00,,,0.00,weatherlink.com 1.10,2013-07-13 21:58:00,
2013-07-13 18:13:00,84.5,76.0,29.83,ENE,66,10.0,12.0,75,0.00,,,0.00,weatherlink.com 1.10,2013-07-13 22:13:00,
2013-07-13 18:28:00,83.9,76.0,29.83,NE,50,7.0,14.0,76,0.00,,,0.00,weatherlink.com 1.10,2013-07-13 22:28:00,
2013-07-13 18:43:00,83.9,76.0,29.83,East,97,2.0,11.0,77,0.00,,,0.00,weatherlink.com 1.10,2013-07-13 22:43:00,
2013-07-13 18:58:00,83.5,76.0,29.84,East,90,6.0,16.0,78,0.00,,,0.00,weatherlink.com 1.10,2013-07-13 22:58:00,
2013-07-13 19:13:00,83.2,76.0,29.85,ENE,59,9.0,13.0,78,0.00,,,0.00,weatherlink.com 1.10,2013-07-13 23:13:00,
2013-07-13 19:28:00,83.2,76.0,29.86,SE,131,5.0,12.0,79,0.00,,,0.00,weatherlink.com 1.10,2013-07-13 23:28:00,
2013-07-13 19:43:00,82.9,76.0,29.86,NE,53,11.0,11.0,80,0.00,,,0.00,weatherlink.com 1.10,2013-07-13 23:43:00,
2013-07-13 19:58:00,82.8,76.0,29.87,NE,41,4.0,11.0,81,0.00,,,0.00,weatherlink.com 1.10,2013-07-13 23:58:00,
2013-07-13 20:13:00,82.7,76.0,29.87,NE,40,8.0,12.0,81,0.00,,,0.00,weatherlink.com 1.10,2013-07-14 00:13:00,
2013-07-13 20:28:00,82.6,76.0,29.88,SE,129,7.0,13.0,81,0.00,,,0.00,weatherlink.com 1.10,2013-07-14 00:28:00,
2013-07-13 20:43:00,82.5,76.0,29.88,East,84,7.0,12.0,81,0.00,,,0.00,weatherlink.com 1.10,2013-07-14 00:43:00,
2013-07-13 20:58:00,82.5,76.0,29.88,ESE,103,5.0,11.0,81,0.00,,,0.00,weatherlink.com 1.10,2013-07-14 00:58:00,
2013-07-13 21:13:00,82.5,76.0,29.88,NE,51,2.0,11.0,80,0.00,,,0.00,weatherlink.com 1.10,2013-07-14 01:13:00,
2013-07-13 21:28:00,82.4,76.0,29.89,ENE,67,7.0,10.0,80,0.00,,,0.00,weatherlink.com 1.10,2013-07-14 01:28:00,
2013-07-13 21:43:00,82.4,76.0,29.89,ENE,71,3.0,10.0,81,0.00,,,0.00,weatherlink.com 1.10,2013-07-14 01:43:00,
2013-07-13 21:58:00,82.4,76.0,29.90,East,87,6.0,11.0,82,0.00,,,0.00,weatherlink.com 1.10,2013-07-14 01:58:00,
2013-07-13 22:13:00,82.3,76.0,29.91,ENE,76,3.0,10.0,82,0.00,,,0.00,weatherlink.com 1.10,2013-07-14 02:13:00,
2013-07-13 22:28:00,82.3,76.0,29.91,ENE,78,8.0,12.0,82,0.00,,,0.00,weatherlink.com 1.10,2013-07-14 02:28:00,
2013-07-13 22:43:00,82.4,76.0,29.91,ENE,59,3.0,14.0,82,0.00,,,0.00,weatherlink.com 1.10,2013-07-14 02:43:00,
2013-07-13 22:58:00,82.4,77.0,29.92,East,80,5.0,10.0,83,0.00,,,0.00,weatherlink.com 1.10,2013-07-14 02:58:00,
2013-07-13 23:13:00,82.4,77.0,29.92,NE,50,5.0,11.0,83,0.00,,,0.00,weatherlink.com 1.10,2013-07-14 03:13:00,
2013-07-13 23:28:00,82.2,76.0,29.92,ENE,67,5.0,11.0,82,0.00,,,0.00,weatherlink.com 1.10,2013-07-14 03:28:00,
2013-07-13 23:43:00,82.0,76.0,29.92,East,93,3.0,9.0,82,0.00,,,0.00,weatherlink.com 1.10,2013-07-14 03:43:00,
2013-07-13 23:58:00,82.0,76.0,29.91,East,89,9.0,12.0,82,0.00,,,0.00,weatherlink.com 1.10,2013-07-14 03:58:00,